Time;durP1;ratioP1;P1;durP2;ratioP2;P2;SDS_P1;SDS_P2;PMS_P1;PMS_P2;Temp;Humidity;BMP_temperature;BMP_pressure;BME280_temperature;BME280_humidity;BME280_pressure;Samples;Min_cycle;Max_cycle;Signal;HPM_P1;HPM_P2
2020/12/21 00:00:44;;;;;;;4.03;2.38;;;8.30;99.90;;;;;;4935950;29;20051;-84
2020/12/21 00:03:09;;;;;;;5.38;3.53;;;8.00;96.80;;;;;;4936150;29;20494;-82
2020/12/21 00:05:35;;;;;;;3.90;2.30;;;8.20;89.80;;;;;;4920308;29;20024;-82
2020/12/21 00:08:01;;;;;;;3.80;2.20;;;8.40;99.90;;;;;;4936406;29;20379;-84
2020/12/21 00:10:30;;;;;;;4.25;2.42;;;8.30;97.10;;;;;;4936100;29;20390;-82
2020/12/21 00:12:56;;;;;;;2.53;2.08;;;;;;;;;;4932787;29;20063;-84
2020/12/21 00:15:22;;;;;;;4.20;2.20;;;;;;;;;;4932458;29;20028;-82
2020/12/21 00:17:47;;;;;;;4.03;2.28;;;7.80;99.90;;;;;;4932526;29;20530;-82
2020/12/21 00:20:13;;;;;;;3.33;1.95;;;8.30;97.80;;;;;;4916529;29;20044;-85
2020/12/21 00:22:39;;;;;;;4.40;2.13;;;8.20;90.30;;;;;;4932583;29;20479;-83
2020/12/21 00:25:05;;;;;;;4.15;2.10;;;;;;;;;;4916654;29;20028;-84
2020/12/21 00:27:30;;;;;;;5.05;2.50;;;8.00;96.90;;;;;;4932622;29;20141;-82
2020/12/21 00:29:56;;;;;;;5.20;2.53;;;8.20;96.00;;;;;;4935737;29;20036;-81
2020/12/21 00:32:21;;;;;;;4.65;1.80;;;8.20;90.40;;;;;;4916478;29;20032;-82
2020/12/21 00:34:47;;;;;;;4.97;2.28;;;;;;;;;;4932444;29;20030;-81
2020/12/21 00:37:13;;;;;;;4.82;2.40;;;8.20;97.20;;;;;;4931876;29;20487;-83
2020/12/21 00:39:39;;;;;;;4.85;2.05;;;8.30;97.90;;;;;;4947827;29;20087;-84
2020/12/21 00:42:04;;;;;;;4.07;2.42;;;7.90;95.40;;;;;;4948010;29;20107;-82
2020/12/21 00:44:31;;;;;;;3.83;2.47;;;8.10;97.30;;;;;;4932441;29;20123;-82
2020/12/21 00:46:57;;;;;;;4.40;2.42;;;8.00;90.30;;;;;;4931789;29;20468;-82
2020/12/21 00:49:22;;;;;;;3.85;2.17;;;8.00;99.90;;;;;;4916109;29;20051;-81
2020/12/21 00:51:48;;;;;;;2.88;2.42;;;8.00;97.70;;;;;;4947852;29;20035;-82
2020/12/21 00:54:14;;;;;;;5.13;2.47;;;7.90;90.90;;;;;;4947916;28;20035;-82
2020/12/21 00:56:40;;;;;;;3.95;2.65;;;;;;;;;;4931946;29;20172;-83
2020/12/21 00:59:05;;;;;;;4.88;2.00;;;7.90;97.70;;;;;;4931700;29;20118;-82
2020/12/21 01:01:31;;;;;;;6.60;2.28;;;;;;;;;;4947880;29;20036;-82
2020/12/21 01:03:58;;;;;;;4.53;2.10;;;7.90;89.90;;;;;;4917126;29;20055;-82
2020/12/21 01:06:27;;;;;;;4.07;2.90;;;;;;;;;;4947854;29;20028;-82
2020/12/21 01:08:56;;;;;;;6.32;2.88;;;7.90;95.60;;;;;;4931419;29;20390;-83
2020/12/21 01:11:22;;;;;;;4.05;2.70;;;7.60;98.40;;;;;;4947508;29;20056;-84
2020/12/21 01:13:48;;;;;;;3.08;2.60;;;7.70;90.90;;;;;;4931529;29;20118;-82
2020/12/21 01:16:14;;;;;;;5.85;3.00;;;;;;;;;;4931704;29;20024;-82
2020/12/21 01:18:39;;;;;;;4.50;2.53;;;7.60;99.90;;;;;;4931323;29;20356;-82
2020/12/21 01:21:05;;;;;;;4.63;2.97;;;7.70;91.20;;;;;;4947160;29;20059;-81
2020/12/21 01:23:31;;;;;;;5.45;3.00;;;;;;;;;;4947489;29;20032;-81
2020/12/21 01:25:57;;;;;;;6.47;2.63;;;7.30;98.00;;;;;;4915519;29;20471;-81
2020/12/21 01:28:22;;;;;;;4.65;2.85;;;7.50;91.30;;;;;;4931491;29;20038;-83
2020/12/21 01:30:49;;;;;;;8.35;3.00;;;7.50;91.60;;;;;;4931222;29;20020;-81
2020/12/21 01:33:15;;;;;;;8.73;3.17;;;7.60;98.10;;;;;;4947052;29;20075;-85
2020/12/21 01:35:44;;;;;;;5.32;2.90;;;;;;;;;;4948611;28;20056;-82
2020/12/21 01:38:10;;;;;;;6.20;3.00;;;;;;;;;;4933737;29;20067;-82
2020/12/21 01:40:35;;;;;;;3.08;2.70;;;7.20;98.00;;;;;;4919009;29;20532;-84
2020/12/21 01:43:01;;;;;;;5.55;2.83;;;7.10;98.30;;;;;;4918886;29;20122;-84
2020/12/21 01:45:26;;;;;;;5.35;2.65;;;7.40;99.90;;;;;;4918368;29;20368;-82
2020/12/21 01:48:39;;;;;;;4.32;2.60;;;7.00;95.80;;;;;;4919594;29;20836;-83
2020/12/21 01:51:05;;;;;;;8.98;3.10;;;7.10;98.70;;;;;;4933260;29;20035;-80
2020/12/21 01:53:36;;;;;;;4.82;2.65;;;7.30;99.90;;;;;;4934297;29;20031;-82
2020/12/21 01:56:03;;;;;;;5.05;2.33;;;6.90;97.70;;;;;;4919078;29;20044;-82
2020/12/21 01:58:29;;;;;;;4.68;2.55;;;6.90;99.00;;;;;;4934057;29;20130;-82
2020/12/21 02:01:15;;;;;;;4.88;3.00;;;;;;;;;;4934158;29;20063;-82
2020/12/21 02:03:50;;;;;;;5.60;3.03;;;7.00;90.80;;;;;;4936238;29;20039;-83
2020/12/21 02:06:17;;;;;;;5.93;2.83;;;6.60;90.80;;;;;;4917544;29;20614;-83
2020/12/21 02:08:42;;;;;;;5.13;2.45;;;;;;;;;;4937979;29;20082;-84
2020/12/21 02:11:08;;;;;;;5.88;2.80;;;6.60;99.90;;;;;;4952175;29;20030;-81
2020/12/21 02:13:34;;;;;;;5.57;2.60;;;6.30;99.90;;;;;;4920014;28;20031;-83
2020/12/21 02:16:01;;;;;;;4.03;2.47;;;;;;;;;;4936970;29;20110;-81
2020/12/21 02:18:26;;;;;;;4.03;2.35;;;6.40;99.90;;;;;;4936783;29;20070;-82
2020/12/21 02:20:52;;;;;;;4.10;2.50;;;6.10;99.90;;;;;;4936022;29;20490;-81
2020/12/21 02:23:18;;;;;;;7.43;2.60;;;;;;;;;;4920976;29;20114;-83
2020/12/21 02:25:43;;;;;;;7.30;2.28;;;6.20;99.90;;;;;;4952531;29;20378;-81
2020/12/21 02:28:09;;;;;;;4.97;2.47;;;6.20;99.90;;;;;;4953114;29;20106;-80
2020/12/21 02:30:35;;;;;;;4.85;2.60;;;;;;;;;;4935794;29;20055;-81
2020/12/21 02:33:01;;;;;;;5.93;2.35;;;6.30;99.90;;;;;;4930363;29;20075;-83
2020/12/21 02:35:26;;;;;;;4.32;2.42;;;6.10;99.90;;;;;;4898963;29;20028;-80
2020/12/21 02:37:52;;;;;;;9.00;2.70;;;6.10;99.90;;;;;;4899041;29;20526;-83
2020/12/21 02:40:17;;;;;;;6.55;2.70;;;6.40;99.80;;;;;;4930507;29;20124;-82
2020/12/21 02:42:43;;;;;;;4.22;2.40;;;6.30;99.90;;;;;;4932484;29;20115;-81
2020/12/21 02:45:09;;;;;;;3.95;2.70;;;;;;;;;;4917877;29;20055;-82
2020/12/21 02:47:36;;;;;;;5.40;2.95;;;6.50;99.50;;;;;;4917892;29;20102;-81
2020/12/21 02:50:23;;;;;;;7.28;2.75;;;6.80;92.70;;;;;;4917987;29;20051;-82
2020/12/21 02:52:49;;;;;;;5.75;2.60;;;;;;;;;;4920113;29;20052;-81
2020/12/21 02:55:15;;;;;;;6.18;2.30;;;6.40;99.70;;;;;;4933503;29;20032;-84
2020/12/21 02:57:40;;;;;;;7.18;2.40;;;6.20;99.90;;;;;;4917572;29;20087;-81
2020/12/21 03:00:09;;;;;;;4.78;2.38;;;6.40;99.90;;;;;;4935775;29;20107;-81
2020/12/21 03:02:35;;;;;;;5.38;2.75;;;6.10;99.90;;;;;;4918367;29;20035;-81
2020/12/21 03:05:00;;;;;;;6.32;2.33;;;6.00;99.80;;;;;;4918107;29;20024;-82
2020/12/21 03:07:26;;;;;;;4.43;3.08;;;6.10;99.90;;;;;;4918019;29;20430;-83
2020/12/21 03:09:52;;;;;;;4.63;2.95;;;;;;;;;;4917902;29;20055;-81
2020/12/21 03:12:17;;;;;;;6.50;2.63;;;5.90;99.90;;;;;;4933578;29;20034;-82
2020/12/21 03:14:43;;;;;;;5.03;2.58;;;5.90;92.40;;;;;;4918171;29;20034;-81
2020/12/21 03:17:09;;;;;;;6.18;2.40;;;5.90;99.90;;;;;;4917913;29;20487;-83
2020/12/21 03:19:34;;;;;;;6.07;2.80;;;5.80;99.50;;;;;;4918066;29;20084;-81
2020/12/21 03:22:00;;;;;;;5.50;2.50;;;;;;;;;;4933540;29;20444;-81
2020/12/21 03:24:26;;;;;;;4.63;2.75;;;;;;;;;;4933479;29;20025;-80
2020/12/21 03:26:52;;;;;;;3.75;2.20;;;5.90;99.90;;;;;;4933670;29;20036;-83
2020/12/21 03:29:17;;;;;;;6.93;2.60;;;5.70;99.90;;;;;;4917633;29;20028;-81
2020/12/21 03:31:44;;;;;;;5.05;2.30;;;;;;;;;;4917860;29;20427;-81
2020/12/21 03:34:13;;;;;;;4.43;2.30;;;5.30;99.60;;;;;;4933818;29;20032;-81
2020/12/21 03:36:40;;;;;;;7.25;2.65;;;5.20;99.90;;;;;;4918165;29;20024;-81
2020/12/21 03:39:06;;;;;;;6.10;2.60;;;;;;;;;;4917633;29;20032;-81
2020/12/21 03:41:31;;;;;;;5.00;2.05;;;5.20;99.90;;;;;;4933283;29;20095;-81
2020/12/21 03:43:57;;;;;;;5.90;2.42;;;5.10;94.00;;;;;;4901780;29;20036;-84
2020/12/21 03:46:22;;;;;;;7.10;2.28;;;5.10;99.90;;;;;;4917361;29;20033;-81
2020/12/21 03:48:48;;;;;;;4.75;2.08;;;5.10;99.90;;;;;;4918517;29;20035;-81
2020/12/21 03:51:14;;;;;;;2.47;2.00;;;5.50;94.00;;;;;;4917465;29;20040;-81
2020/12/21 03:53:39;;;;;;;3.97;2.75;;;5.00;99.90;;;;;;4917136;29;20058;-81
2020/12/21 03:56:05;;;;;;;3.33;2.35;;;4.10;97.70;;;;;;4901643;29;20148;-80
2020/12/21 03:58:30;;;;;;;4.68;2.03;;;5.60;99.90;;;;;;4901150;29;20081;-81
2020/12/21 04:00:56;;;;;;;4.13;2.55;;;5.30;99.90;;;;;;4932825;29;20122;-83
2020/12/21 04:03:22;;;;;;;10.95;2.70;;;;;;;;;;4933139;29;20032;-81
2020/12/21 04:05:47;;;;;;;5.22;2.55;;;5.50;99.70;;;;;;4918218;29;20025;-81
2020/12/21 04:08:13;;;;;;;6.15;2.53;;;5.30;99.90;;;;;;4917231;29;20060;-80
2020/12/21 04:10:40;;;;;;;7.13;2.97;;;;;;;;;;4916709;29;20032;-81
2020/12/21 04:13:06;;;;;;;6.13;2.70;;;5.40;99.90;;;;;;4916883;29;20075;-83
2020/12/21 04:15:31;;;;;;;5.47;2.90;;;5.40;99.90;;;;;;4916968;29;20032;-81
2020/12/21 04:17:57;;;;;;;5.75;2.67;;;5.30;99.90;;;;;;4916728;29;20024;-81
2020/12/21 04:20:22;;;;;;;4.50;2.47;;;5.30;99.70;;;;;;4916769;29;20036;-81
2020/12/21 04:22:48;;;;;;;6.07;3.33;;;5.10;99.90;;;;;;4916894;29;20039;-83
2020/12/21 04:25:14;;;;;;;4.93;3.10;;;;;;;;;;4916914;29;20032;-80
2020/12/21 04:27:40;;;;;;;5.50;2.78;;;5.60;99.70;;;;;;4932575;29;20028;-81
2020/12/21 04:30:05;;;;;;;8.75;4.30;;;5.10;99.90;;;;;;4932716;29;20535;-83
2020/12/21 04:32:31;;;;;;;6.85;3.63;;;;;;;;;;4932388;29;20036;-81
2020/12/21 04:34:57;;;;;;;8.10;4.38;;;5.00;99.90;;;;;;4932126;29;20123;-81
2020/12/21 04:37:22;;;;;;;14.15;9.05;;;5.20;99.90;;;;;;4916616;29;20086;-81
2020/12/21 04:39:48;;;;;;;6.30;3.20;;;;;;;;;;4916517;29;20083;-81
2020/12/21 04:42:14;;;;;;;8.88;3.97;;;5.40;99.90;;;;;;4917426;29;20131;-81
2020/12/21 04:44:40;;;;;;;22.42;10.55;;;;;;;;;;4916422;29;20484;-81
2020/12/21 04:47:06;;;;;;;25.02;10.13;;;;;;;;;;4916686;29;20028;-85
2020/12/21 04:49:32;;;;;;;29.40;12.90;;;;;;;;;;4916093;29;20383;-83
2020/12/21 04:51:58;;;;;;;14.48;6.78;;;;;;;;;;4916387;29;20056;-81
2020/12/21 04:54:24;;;;;;;18.48;9.27;;;;;;;;;;4916112;29;20111;-82
2020/12/21 04:56:50;;;;;;;15.77;7.10;;;;;;;;;;4931916;29;20531;-82
2020/12/21 04:59:16;;;;;;;7.15;3.35;;;;;;;;;;4931662;29;20063;-82
2020/12/21 05:01:42;;;;;;;4.90;2.78;;;;;;;;;;4917463;29;20360;-82
2020/12/21 05:04:08;;;;;;;9.63;3.95;;;;;;;;;;4915888;29;20028;-85
2020/12/21 05:06:34;;;;;;;7.75;3.10;;;;;;;;;;4915980;29;20036;-81
2020/12/21 05:09:01;;;;;;;25.65;13.30;;;;;;;;;;4931588;29;20034;-82
2020/12/21 05:11:28;;;;;;;6.50;3.20;;;;;;;;;;4916078;29;20135;-81
2020/12/21 05:14:04;;;;;;;7.95;3.63;;;5.20;99.90;;;;;;4931686;29;20047;-80
2020/12/21 05:16:30;;;;;;;9.43;3.40;;;;;;;;;;4915943;29;20028;-81
2020/12/21 05:18:55;;;;;;;8.65;5.00;;;4.80;99.90;;;;;;4931324;29;20028;-84
2020/12/21 05:21:26;;;;;;;4.53;2.63;;;4.70;99.90;;;;;;4915743;29;20403;-83
2020/12/21 05:23:55;;;;;;;5.60;2.78;;;4.90;99.90;;;;;;4915376;29;20395;-81
2020/12/21 05:26:26;;;;;;;5.13;2.90;;;4.70;99.20;;;;;;4915882;29;20028;-82
2020/12/21 05:29:00;;;;;;;6.75;3.25;;;4.60;99.90;;;;;;4899902;29;20029;-81
2020/12/21 05:31:30;;;;;;;6.50;3.08;;;5.10;99.90;;;;;;4899895;29;20471;-81
2020/12/21 05:33:55;;;;;;;12.27;4.68;;;4.90;99.90;;;;;;4900138;29;20478;-82
2020/12/21 05:36:22;;;;;;;9.20;4.05;;;4.90;93.40;;;;;;4915577;29;20040;-81
2020/12/21 05:38:57;;;;;;;7.13;2.65;;;4.80;97.10;;;;;;4915617;29;20024;-81
2020/12/21 05:41:23;;;;;;;4.47;3.47;;;5.10;99.70;;;;;;4915606;29;20076;-81
2020/12/21 05:43:53;;;;;;;6.32;4.32;;;5.40;92.90;;;;;;4899624;29;20078;-81
2020/12/21 05:46:20;;;;;;;5.55;2.97;;;5.00;98.20;;;;;;4915313;29;20036;-81
2020/12/21 05:48:50;;;;;;;8.88;4.47;;;4.80;98.40;;;;;;4915576;29;20024;-82
2020/12/21 05:51:30;;;;;;;7.22;2.78;;;4.90;99.90;;;;;;4915667;29;20035;-82
2020/12/21 05:53:58;;;;;;;5.53;3.15;;;4.90;91.70;;;;;;4915337;29;20028;-80
2020/12/21 05:56:24;;;;;;;3.03;2.42;;;5.10;93.00;;;;;;4915179;29;20033;-81
2020/12/21 05:58:50;;;;;;;6.13;2.85;;;;;;;;;;4930869;29;20056;-80
2020/12/21 06:01:17;;;;;;;3.75;2.28;;;;;;;;;;4915243;29;20032;-81
2020/12/21 06:03:42;;;;;;;4.93;2.63;;;4.80;91.60;;;;;;4931420;29;20542;-82
2020/12/21 06:06:09;;;;;;;6.45;2.55;;;5.20;92.70;;;;;;4916473;29;20027;-81
2020/12/21 06:08:36;;;;;;;3.38;2.50;;;5.40;92.70;;;;;;4915047;29;20028;-81
2020/12/21 06:11:09;;;;;;;26.55;14.48;;;4.90;99.90;;;;;;4899553;29;20036;-80
2020/12/21 06:13:36;;;;;;;5.35;3.60;;;4.90;99.20;;;;;;4915299;29;20415;-80
2020/12/21 06:16:02;;;;;;;6.35;3.58;;;;;;;;;;4915545;29;20044;-80
2020/12/21 06:18:28;;;;;;;9.05;3.35;;;5.00;99.80;;;;;;4930930;29;20028;-80
2020/12/21 06:20:53;;;;;;;6.00;4.13;;;5.40;99.90;;;;;;4914873;29;20368;-81
2020/12/21 06:23:32;;;;;;;7.95;5.38;;;4.80;98.00;;;;;;4930721;29;20032;-80
2020/12/21 06:30:07;;;;;;;7.72;4.30;;;4.90;91.80;;;;;;4822754;29;20035;-82
2020/12/21 06:32:33;;;;;;;8.00;4.20;;;5.10;92.20;;;;;;4869736;29;20040;-79
2020/12/21 06:34:59;;;;;;;6.32;3.88;;;;;;;;;;4932386;29;20123;-79
2020/12/21 06:37:25;;;;;;;9.82;4.35;;;;;;;;;;4934584;29;20051;-80
2020/12/21 06:40:04;;;;;;;10.35;4.30;;;5.00;90.90;;;;;;4934329;29;20043;-80
2020/12/21 06:42:31;;;;;;;7.50;3.33;;;;;;;;;;4918914;29;20036;-80
2020/12/21 06:44:57;;;;;;;8.77;5.15;;;5.00;99.20;;;;;;4920029;29;20100;-81
2020/12/21 06:47:23;;;;;;;5.50;3.08;;;;;;;;;;4918912;29;20032;-81
2020/12/21 06:49:52;;;;;;;5.18;3.25;;;;;;;;;;4934594;29;20038;-79
2020/12/21 06:52:19;;;;;;;8.85;3.17;;;;;;;;;;4934201;29;20029;-80
2020/12/21 06:54:44;;;;;;;6.93;4.20;;;5.10;98.50;;;;;;4934426;29;20518;-80
2020/12/21 06:57:11;;;;;;;4.40;2.97;;;5.60;91.60;;;;;;4919071;29;20032;-79
2020/12/21 06:59:36;;;;;;;6.07;3.63;;;5.70;91.50;;;;;;4902480;29;20060;-80
2020/12/21 07:02:02;;;;;;;5.30;3.10;;;;;;;;;;4902952;29;20103;-81
2020/12/21 07:04:32;;;;;;;5.90;3.30;;;5.60;99.90;;;;;;4934059;29;20467;-80
2020/12/21 07:07:00;;;;;;;9.18;4.47;;;5.80;96.20;;;;;;4918548;29;20036;-81
2020/12/21 07:09:33;;;;;;;3.83;2.80;;;5.90;99.90;;;;;;4908990;29;20071;-80
2020/12/21 07:12:00;;;;;;;6.13;2.92;;;5.70;90.80;;;;;;4935932;29;20028;-81
2020/12/21 07:14:26;;;;;;;6.30;2.85;;;5.60;98.70;;;;;;4921158;29;20427;-81
2020/12/21 07:17:08;;;;;;;5.28;4.38;;;5.50;96.50;;;;;;4924658;29;20038;-80
2020/12/21 07:19:39;;;;;;;6.88;3.40;;;5.50;98.30;;;;;;4937009;29;20036;-80
2020/12/21 07:22:05;;;;;;;4.65;3.45;;;6.00;91.30;;;;;;4937293;29;20036;-80
2020/12/21 07:24:31;;;;;;;7.90;5.82;;;;;;;;;;4936925;29;20028;-79
2020/12/21 07:26:57;;;;;;;8.93;3.40;;;5.00;98.90;;;;;;4936669;29;20035;-80
2020/12/21 07:29:22;;;;;;;8.57;5.82;;;5.20;99.30;;;;;;4936719;29;20080;-80
2020/12/21 07:31:48;;;;;;;7.80;4.38;;;5.50;92.30;;;;;;4921177;29;20024;-79
2020/12/21 07:34:14;;;;;;;10.90;4.55;;;;;;;;;;4936439;29;20484;-78
2020/12/21 07:36:40;;;;;;;10.77;5.47;;;5.30;96.30;;;;;;4936641;29;20028;-80
2020/12/21 07:39:10;;;;;;;8.75;3.15;;;5.50;99.90;;;;;;4936420;29;20028;-80
2020/12/21 07:41:40;;;;;;;9.07;3.47;;;5.60;97.60;;;;;;4935705;29;20179;-81
2020/12/21 07:44:35;;;;;;;6.40;2.90;;;5.90;99.90;;;;;;4922426;29;20083;-78
2020/12/21 07:47:07;;;;;;;4.90;2.55;;;5.60;90.80;;;;;;4942899;29;20534;-79
2020/12/21 07:49:34;;;;;;;3.33;2.72;;;5.70;90.80;;;;;;4936953;29;20039;-84
2020/12/21 07:52:00;;;;;;;9.07;2.95;;;;;;;;;;4917103;29;20028;-83
2020/12/21 07:54:26;;;;;;;6.35;2.97;;;5.50;98.80;;;;;;4933042;29;20020;-80
2020/12/21 07:57:01;;;;;;;6.32;3.28;;;6.00;91.90;;;;;;4932444;29;20042;-81
2020/12/21 07:59:27;;;;;;;7.95;4.60;;;;;;;;;;4920107;29;20138;-82
2020/12/21 08:01:56;;;;;;;6.20;3.72;;;5.60;97.70;;;;;;4943501;29;20028;-81
2020/12/21 08:04:22;;;;;;;11.88;3.92;;;;;;;;;;4916529;29;20574;-85
2020/12/21 08:06:49;;;;;;;10.18;3.40;;;5.60;90.70;;;;;;4933155;29;20024;-84
2020/12/21 08:09:15;;;;;;;8.82;3.35;;;;;;;;;;4930765;29;20054;-81
2020/12/21 08:11:41;;;;;;;6.82;3.50;;;;;;;;;;4935134;29;20103;-80
2020/12/21 08:14:08;;;;;;;5.13;3.20;;;5.70;99.90;;;;;;4936692;29;20028;-82
2020/12/21 08:16:34;;;;;;;4.45;2.80;;;;;;;;;;4935881;29;20027;-82
2020/12/21 08:19:00;;;;;;;6.25;2.65;;;5.90;90.70;;;;;;4920008;29;20170;-81
2020/12/21 08:21:26;;;;;;;5.53;3.15;;;6.30;99.90;;;;;;4919709;29;20050;-80
2020/12/21 08:23:53;;;;;;;6.22;3.25;;;5.90;98.80;;;;;;4935440;29;20253;-79
2020/12/21 08:26:19;;;;;;;8.05;3.42;;;;;;;;;;4936199;29;20023;-85
2020/12/21 08:28:45;;;;;;;7.03;3.95;;;;;;;;;;4935966;29;20493;-81
2020/12/21 08:31:11;;;;;;;6.35;3.75;;;;;;;;;;4935887;29;20054;-79
2020/12/21 08:33:38;;;;;;;8.88;3.10;;;6.40;99.90;;;;;;4937642;29;20376;-79
2020/12/21 08:36:15;;;;;;;8.20;3.70;;;6.40;99.10;;;;;;4921509;29;20063;-79
2020/12/21 08:38:41;;;;;;;6.18;3.40;;;;;;;;;;4935904;29;20078;-79
2020/12/21 08:41:07;;;;;;;7.03;3.85;;;6.40;99.90;;;;;;4935605;29;20043;-81
2020/12/21 08:43:33;;;;;;;8.05;4.28;;;6.40;91.30;;;;;;4935655;29;20028;-80
2020/12/21 08:45:59;;;;;;;5.22;3.58;;;6.60;91.40;;;;;;4936651;29;20031;-80
2020/12/21 08:48:25;;;;;;;6.05;3.17;;;;;;;;;;4936876;29;20062;-80
2020/12/21 08:50:51;;;;;;;7.13;4.60;;;6.20;99.90;;;;;;4936589;29;20359;-80
2020/12/21 08:53:17;;;;;;;6.75;3.58;;;6.50;99.30;;;;;;4933938;29;20055;-79
2020/12/21 08:55:42;;;;;;;6.55;3.92;;;6.50;99.10;;;;;;4940345;29;20035;-79
2020/12/21 08:58:09;;;;;;;7.10;3.78;;;6.50;99.90;;;;;;4940635;29;20513;-79
2020/12/21 09:00:36;;;;;;;6.75;3.75;;;6.20;98.90;;;;;;4936700;29;20069;-79
2020/12/21 09:03:02;;;;;;;7.45;3.47;;;;;;;;;;4936510;29;20036;-79
2020/12/21 09:05:29;;;;;;;9.02;3.95;;;;;;;;;;4935819;29;20044;-80
2020/12/21 09:07:55;;;;;;;5.93;3.42;;;6.60;99.00;;;;;;4934788;29;20027;-80
2020/12/21 09:10:21;;;;;;;7.43;3.58;;;6.50;91.00;;;;;;4934791;29;20055;-79
2020/12/21 09:12:46;;;;;;;9.98;6.10;;;6.90;99.90;;;;;;4934482;29;20028;-80
2020/12/21 09:15:12;;;;;;;6.45;3.40;;;6.90;99.90;;;;;;4935909;29;20467;-79
2020/12/21 09:17:37;;;;;;;7.43;3.90;;;6.70;90.80;;;;;;4934197;29;20035;-79
2020/12/21 09:20:03;;;;;;;7.32;3.60;;;;;;;;;;4934832;29;20059;-80
2020/12/21 09:22:29;;;;;;;6.35;3.50;;;;;;;;;;4934157;29;20070;-78
2020/12/21 09:24:55;;;;;;;5.43;3.60;;;7.00;99.90;;;;;;4935988;29;20111;-80
2020/12/21 09:27:24;;;;;;;11.48;3.83;;;7.30;98.30;;;;;;4934991;29;20031;-80
2020/12/21 09:29:50;;;;;;;9.30;4.05;;;;;;;;;;4918708;29;20413;-80
2020/12/21 09:32:16;;;;;;;7.32;3.85;;;7.10;99.90;;;;;;4934811;29;20104;-79
2020/12/21 09:34:41;;;;;;;5.30;3.40;;;7.10;89.60;;;;;;4934663;29;20027;-79
2020/12/21 09:37:07;;;;;;;6.47;4.45;;;;;;;;;;4918171;29;20028;-80
2020/12/21 09:39:34;;;;;;;6.72;3.63;;;7.40;97.40;;;;;;4935298;29;20023;-76
2020/12/21 09:42:00;;;;;;;7.60;3.58;;;6.80;88.30;;;;;;4933724;29;20115;-79
2020/12/21 09:44:25;;;;;;;6.22;3.35;;;7.40;88.90;;;;;;4935578;29;20107;-80
2020/12/21 09:46:51;;;;;;;4.68;3.25;;;7.60;99.90;;;;;;4917779;29;20431;-78
2020/12/21 09:49:18;;;;;;;9.23;3.92;;;7.70;99.90;;;;;;4934288;29;20395;-78
2020/12/21 09:51:48;;;;;;;7.22;3.75;;;7.70;88.60;;;;;;4934045;29;20027;-78
2020/12/21 09:54:14;;;;;;;4.63;3.45;;;7.70;99.90;;;;;;4933316;29;20099;-77
2020/12/21 09:56:40;;;;;;;7.68;3.50;;;7.80;99.90;;;;;;4933781;29;20048;-78
2020/12/21 09:59:06;;;;;;;4.65;3.45;;;7.80;87.80;;;;;;4933726;29;20087;-78
2020/12/21 10:01:32;;;;;;;6.18;3.60;;;7.60;94.00;;;;;;4933685;29;20529;-79
2020/12/21 10:03:58;;;;;;;6.85;3.00;;;7.90;99.90;;;;;;4933760;29;20122;-77
2020/12/21 10:06:24;;;;;;;6.75;3.13;;;8.10;98.80;;;;;;4917090;29;20482;-78
2020/12/21 10:08:53;;;;;;;6.78;4.22;;;8.00;89.00;;;;;;4930698;29;20027;-79
2020/12/21 10:11:20;;;;;;;7.68;4.57;;;;;;;;;;4918573;29;20032;-77
2020/12/21 10:13:48;;;;;;;4.35;3.30;;;8.00;99.90;;;;;;4936705;29;20040;-78
2020/12/21 10:16:13;;;;;;;5.38;3.53;;;8.20;94.00;;;;;;4934201;29;20028;-78
2020/12/21 10:18:39;;;;;;;4.13;3.35;;;;;;;;;;4933814;29;20027;-80
2020/12/21 10:21:08;;;;;;;8.13;3.72;;;8.30;95.20;;;;;;4918116;29;20156;-79
2020/12/21 10:23:34;;;;;;;4.72;4.28;;;8.10;86.20;;;;;;4933812;29;20390;-80
2020/12/21 10:26:03;;;;;;;4.25;3.60;;;8.10;99.90;;;;;;4935043;29;20028;-79
2020/12/21 10:28:29;;;;;;;7.22;6.53;;;;;;;;;;4932598;29;20060;-79
2020/12/21 10:30:55;;;;;;;9.85;7.22;;;8.30;99.90;;;;;;4933892;29;20039;-82
2020/12/21 10:33:21;;;;;;;5.28;4.43;;;8.20;87.70;;;;;;4902139;29;20368;-80
2020/12/21 10:35:47;;;;;;;8.07;4.78;;;8.20;88.00;;;;;;4943681;28;20042;-80
2020/12/21 10:38:13;;;;;;;16.27;12.25;;;;;;;;;;4952738;28;20039;-81
2020/12/21 10:40:38;;;;;;;7.28;4.90;;;8.20;99.90;;;;;;4952692;28;20042;-80
2020/12/21 10:43:04;;;;;;;7.97;4.70;;;8.20;90.50;;;;;;4950030;28;20027;-81
2020/12/21 10:45:30;;;;;;;9.65;6.72;;;;;;;;;;4917380;29;20123;-81
2020/12/21 10:47:56;;;;;;;6.53;4.53;;;8.00;95.50;;;;;;4932757;29;20490;-82
2020/12/21 10:50:21;;;;;;;10.52;5.97;;;8.00;86.30;;;;;;4933931;29;20035;-82
2020/12/21 10:52:47;;;;;;;7.72;4.93;;;;;;;;;;4933477;29;20032;-83
2020/12/21 10:55:13;;;;;;;8.13;5.50;;;8.30;99.90;;;;;;4933576;29;20024;-84
2020/12/21 10:57:38;;;;;;;31.40;12.20;;;8.00;90.40;;;;;;4934011;29;20032;-80
2020/12/21 11:00:36;;;;;;;54.40;16.67;;;8.10;97.90;;;;;;4918030;29;20462;-81
2020/12/21 11:03:02;;;;;;;19.00;7.47;;;8.10;99.90;;;;;;4930528;29;20056;-81
2020/12/21 11:05:28;;;;;;;29.83;11.05;;;8.00;89.80;;;;;;4914352;29;20040;-82
2020/12/21 11:07:54;;;;;;;84.15;20.10;;;;;;;;;;4899001;29;20042;-84
2020/12/21 11:10:20;;;;;;;14.95;5.88;;;8.10;97.10;;;;;;4930281;29;20531;-83
2020/12/21 11:12:45;;;;;;;8.77;6.03;;;8.50;99.90;;;;;;4913721;29;20063;-82
2020/12/21 11:15:11;;;;;;;8.48;4.57;;;8.30;99.90;;;;;;4914080;29;20027;-83
2020/12/21 11:17:37;;;;;;;10.25;5.75;;;;;;;;;;4898247;29;20021;-83
2020/12/21 11:20:04;;;;;;;4.80;3.65;;;;;;;;;;4915203;29;20067;-84
2020/12/21 11:22:29;;;;;;;4.68;3.67;;;;;;;;;;4918256;29;20032;-86
2020/12/21 11:24:56;;;;;;;4.53;3.30;;;8.40;99.90;;;;;;4918142;29;20026;-82
2020/12/21 11:27:22;;;;;;;6.68;4.30;;;;;;;;;;4918164;29;20079;-85
2020/12/21 11:29:48;;;;;;;7.90;4.55;;;8.30;99.90;;;;;;4917736;29;20028;-83
2020/12/21 11:32:13;;;;;;;5.60;3.55;;;8.90;99.90;;;;;;4918070;29;20387;-85
2020/12/21 11:34:39;;;;;;;4.35;3.15;;;;;;;;;;4918590;29;20028;-83
2020/12/21 11:37:05;;;;;;;6.20;3.38;;;;;;;;;;4917692;29;20036;-84
2020/12/21 11:39:31;;;;;;;2.40;2.20;;;8.80;99.90;;;;;;4925684;29;20111;-84
2020/12/21 11:42:06;;;;;;;1.75;1.65;;;9.40;97.40;;;;;;4919672;29;20130;-83
2020/12/21 11:44:33;;;;;;;3.15;2.50;;;;;;;;;;4917395;29;20039;-87
2020/12/21 11:47:00;;;;;;;4.03;2.92;;;;;;;;;;4917179;29;20071;-85
2020/12/21 11:49:27;;;;;;;8.02;4.95;;;9.90;87.00;;;;;;4935211;29;20032;-83
2020/12/21 11:52:02;;;;;;;4.47;2.90;;;9.90;95.50;;;;;;4918333;29;20485;-83
2020/12/21 11:54:28;;;;;;;3.33;2.97;;;;;;;;;;4935549;29;20035;-84
2020/12/21 11:56:55;;;;;;;7.13;3.45;;;10.10;82.20;;;;;;4952617;28;20386;-83
2020/12/21 11:59:24;;;;;;;8.13;4.55;;;10.20;82.40;;;;;;4936440;29;20071;-86
2020/12/21 12:01:59;;;;;;;3.75;3.40;;;10.20;92.10;;;;;;4936839;29;20542;-84
2020/12/21 12:04:25;;;;;;;5.28;3.38;;;;;;;;;;4936160;29;20032;-85
2020/12/21 12:06:54;;;;;;;5.55;2.95;;;10.60;92.60;;;;;;4935914;29;20027;-85
2020/12/21 12:09:25;;;;;;;3.78;2.95;;;10.60;92.40;;;;;;4935233;29;20028;-82
2020/12/21 12:11:54;;;;;;;2.40;2.20;;;10.70;80.90;;;;;;4937127;29;20023;-83
2020/12/21 12:17:42;;;;;;;6.05;2.95;;;;;;;;;;4937896;29;20116;-83
2020/12/21 12:23:30;;;;;;;4.43;3.47;;;10.80;90.20;;;;;;4937891;29;20071;-81
2020/12/21 12:29:18;;;;;;;2.50;2.30;;;;;;;;;;4937233;29;20115;-83
2020/12/21 12:31:45;;;;;;;2.67;2.40;;;;;;;;;;4951606;28;20031;-83
2020/12/21 12:34:11;;;;;;;5.00;3.95;;;;;;;;;;4936138;29;20028;-86
2020/12/21 12:36:38;;;;;;;2.53;2.22;;;;;;;;;;4936473;29;20027;-86
2020/12/21 12:39:05;;;;;;;4.60;3.33;;;;;;;;;;4936406;29;20027;-89
2020/12/21 12:41:35;;;;;;;6.90;4.65;;;10.90;85.20;;;;;;4936418;29;20043;-86
2020/12/21 12:44:01;;;;;;;5.20;3.20;;;;;;;;;;4936150;29;20035;-82
2020/12/21 12:46:27;;;;;;;4.20;2.65;;;;;;;;;;4936038;29;20020;-89
2020/12/21 12:48:53;;;;;;;4.40;2.90;;;;;;;;;;4936157;29;20027;-85
2020/12/21 12:51:19;;;;;;;2.92;2.63;;;10.70;86.40;;;;;;4935999;29;20082;-86
2020/12/21 12:53:45;;;;;;;5.82;3.53;;;;;;;;;;4934471;29;20023;-85
2020/12/21 12:56:10;;;;;;;3.13;2.83;;;10.90;90.00;;;;;;4916935;29;20034;-83
2020/12/21 12:58:36;;;;;;;3.15;2.55;;;10.80;89.10;;;;;;4915676;29;20099;-82
2020/12/21 13:01:02;;;;;;;3.38;2.80;;;;;;;;;;4917607;29;20047;-84
2020/12/21 13:03:28;;;;;;;2.60;2.22;;;;;;;;;;4917740;29;20091;-83
2020/12/21 13:05:54;;;;;;;2.95;2.58;;;10.90;87.10;;;;;;4917583;29;20040;-82
2020/12/21 13:08:20;;;;;;;3.55;2.92;;;11.20;89.60;;;;;;4933515;29;20107;-84
2020/12/21 13:10:45;;;;;;;3.45;2.50;;;11.00;71.80;;;;;;4917959;29;20441;-82
2020/12/21 13:13:11;;;;;;;4.15;2.63;;;;;;;;;;4917252;29;20075;-84
2020/12/21 13:15:37;;;;;;;5.30;4.13;;;;;;;;;;4935705;29;20022;-87
2020/12/21 13:18:03;;;;;;;4.00;3.40;;;;;;;;;;4919247;29;20024;-85
2020/12/21 13:20:29;;;;;;;3.05;2.40;;;;;;;;;;4915691;29;20071;-86
2020/12/21 13:22:55;;;;;;;3.00;2.40;;;;;;;;;;4922025;29;20058;-86
2020/12/21 13:25:22;;;;;;;2.90;2.60;;;;;;;;;;4917891;29;20158;-84
2020/12/21 13:27:48;;;;;;;4.50;3.00;;;;;;;;;;4933751;29;20023;-89
2020/12/21 13:30:16;;;;;;;3.60;2.50;;;;;;;;;;4918613;29;20055;-82
2020/12/21 13:32:43;;;;;;;4.68;2.47;;;;;;;;;;4934827;29;20027;-86
2020/12/21 13:35:09;;;;;;;3.50;2.50;;;;;;;;;;4919340;29;20020;-85
2020/12/21 13:37:35;;;;;;;3.45;2.72;;;;;;;;;;4934777;29;20489;-83
2020/12/21 13:40:01;;;;;;;4.13;3.00;;;;;;;;;;4950138;28;20044;-86